Newent, United Kingdom
Current Conditions -  °F | °C
As of 2:50 PM on Thursday 30 Oct 2014 (Local Time) from EGBJ Reporting Station
Few Clouds Few Clouds  
Wind Chill: 64°   Ceiling: Unl
Heat Index: 64°   Visibility: 6mi
Dew Point: 59°   Wind: 7mph
Humidity: 83%   Direction: 160°SSE
Pressure: 30"   Gusts: NA
Location:  51.93°N, 2.41°W
Report Text: EGBJ 301450Z 16006KT 9999 FEW018 18/15 Q1016
Loading
Personal Weather Stations






























Interactive Weather Map New forecast layout! Learn more

10-Day Weather Forecast

Advertisements
Track Severe Weather on mobile